Terminal Aerodrome Forecast
Issued by NWS

Home | Current Version | Previous Version | Text Only | Print | Product List | Glossary On
Versions: 1 2 3 4 5 6 7 8 9 10 11 12 13 14 15 16 17
139
FTUS46 KLOX 291519 AAB
TAFPRB
TAF AMD
KPRB 291519Z 2915/3012 18010KT P6SM BKN006
      TEMPO 2915/2917 BKN006
     FM291700 VRB03KT P6SM SCT250
     FM292100 22012G22KT P6SM SCT250
     FM300400 20010KT P6SM FEW006
     FM301000 VRB05KT P6SM SCT005=

USA.gov is the U.S. government's official web portal to all federal, state and local government web resources and services.